createdAt,value
2018-12-13T00:02:29.381Z,18.37
2018-12-13T00:04:58.589Z,17.57
2018-12-13T00:07:26.904Z,18.53
2018-12-13T00:09:59.022Z,18.57
2018-12-13T00:12:29.408Z,21.10
2018-12-13T00:15:02.457Z,19.67
2018-12-13T00:17:31.629Z,19.60
2018-12-13T00:20:00.859Z,19.73
2018-12-13T00:22:29.258Z,20.23
2018-12-13T00:24:57.565Z,18.53
2018-12-13T00:27:26.103Z,21.23
2018-12-13T00:29:55.327Z,23.27
2018-12-13T00:32:23.811Z,19.10
2018-12-13T00:34:52.111Z,23.10
2018-12-13T00:37:21.158Z,19.57
2018-12-13T00:39:49.522Z,22.93
2018-12-13T00:42:18.407Z,24.13
2018-12-13T00:44:48.051Z,23.30
2018-12-13T00:47:16.585Z,22.60
2018-12-13T00:49:45.106Z,25.33
2018-12-13T00:52:13.641Z,25.50
2018-12-13T00:54:41.998Z,24.47
2018-12-13T00:57:12.452Z,26.43
2018-12-13T00:59:50.156Z,25.30
2018-12-13T01:02:18.704Z,26.90
2018-12-13T01:04:47.464Z,30.00
2018-12-13T01:07:19.096Z,28.37
2018-12-13T01:09:47.418Z,27.73
2018-12-13T01:12:17.476Z,29.20
2018-12-13T01:14:45.798Z,26.43
2018-12-13T01:20:06.805Z,30.13
2018-12-13T01:22:35.319Z,33.07
2018-12-13T01:25:04.342Z,31.00
2018-12-13T01:27:33.469Z,27.40
2018-12-13T01:30:02.563Z,30.80
2018-12-13T01:32:34.935Z,30.37
2018-12-13T01:35:04.227Z,31.10
2018-12-13T01:37:32.590Z,30.80
2018-12-13T01:45:46.561Z,32.93
2018-12-13T01:48:15.895Z,32.50
2018-12-13T01:50:44.238Z,36.07
2018-12-13T01:53:13.089Z,39.23
2018-12-13T01:55:45.054Z,36.13
2018-12-13T01:58:13.334Z,36.40
2018-12-13T02:00:41.662Z,34.83
2018-12-13T02:03:10.274Z,34.33
2018-12-13T02:05:38.563Z,34.57
2018-12-13T02:08:06.897Z,37.13
2018-12-13T02:10:35.217Z,37.77
2018-12-13T02:13:03.757Z,31.53
2018-12-13T02:15:33.248Z,38.47
2018-12-13T02:18:01.817Z,35.87
2018-12-13T02:20:30.470Z,35.90
2018-12-13T02:23:02.114Z,35.87
2018-12-13T02:25:30.624Z,38.97
2018-12-13T02:27:59.453Z,37.67
2018-12-13T02:30:27.767Z,37.47
2018-12-13T02:32:56.073Z,40.70
2018-12-13T02:35:25.012Z,38.23
2018-12-13T02:37:53.577Z,41.47
2018-12-13T02:40:22.862Z,38.47
2018-12-13T02:42:58.070Z,39.37
2018-12-13T02:45:29.831Z,36.30
2018-12-13T02:48:01.349Z,40.87
2018-12-13T02:50:30.103Z,37.67
2018-12-13T02:52:58.445Z,38.33
2018-12-13T02:55:26.726Z,40.40
2018-12-13T02:57:55.007Z,41.57
2018-12-13T03:00:23.282Z,41.50
2018-12-13T03:02:52.666Z,36.77
2018-12-13T03:05:21.774Z,38.17
2018-12-13T03:07:59.584Z,38.53
2018-12-13T03:10:28.114Z,37.77
2018-12-13T03:13:00.164Z,42.03
2018-12-13T03:15:28.451Z,36.57
2018-12-13T03:17:56.727Z,36.80
2018-12-13T03:20:25.336Z,37.87
2018-12-13T03:22:53.596Z,40.33
2018-12-13T03:25:22.214Z,36.23
2018-12-13T03:27:50.498Z,37.40
2018-12-13T03:30:18.777Z,36.63
2018-12-13T03:32:47.670Z,32.00
2018-12-13T03:35:16.282Z,36.73
2018-12-13T03:37:44.858Z,37.63
2018-12-13T03:40:13.491Z,34.33
2018-12-13T03:42:41.780Z,33.07
2018-12-13T03:45:13.539Z,32.77
2018-12-13T03:47:42.190Z,37.40
2018-12-13T03:50:11.122Z,37.63
2018-12-13T03:52:39.442Z,34.70
2018-12-13T03:55:08.201Z,37.97
2018-12-13T03:57:40.314Z,36.73
2018-12-13T04:00:09.048Z,36.80
2018-12-13T04:02:38.123Z,32.63
2018-12-13T04:05:10.769Z,34.57
2018-12-13T04:07:39.098Z,32.83
2018-12-13T04:10:08.052Z,32.80
2018-12-13T04:12:36.692Z,37.73
2018-12-13T04:15:05.575Z,31.37
2018-12-13T04:17:34.288Z,32.33
2018-12-13T04:20:03.283Z,32.23
2018-12-13T04:22:31.745Z,37.20
2018-12-13T04:25:00.551Z,35.47
2018-12-13T04:27:28.879Z,34.47
2018-12-13T04:29:57.177Z,34.03
2018-12-13T04:32:25.913Z,34.13
2018-12-13T04:34:57.344Z,33.70
2018-12-13T04:37:26.230Z,34.60
2018-12-13T04:39:54.800Z,32.33
2018-12-13T04:42:23.369Z,30.37
2018-12-13T04:44:51.968Z,27.33
2018-12-13T04:47:20.543Z,31.07
2018-12-13T04:49:48.830Z,30.00
2018-12-13T04:52:17.170Z,26.70
2018-12-13T04:54:45.449Z,29.87
2018-12-13T04:57:16.795Z,26.43
2018-12-13T04:59:45.083Z,26.10
2018-12-13T05:02:13.395Z,23.73
2018-12-13T05:04:41.726Z,26.70
2018-12-13T05:07:10.302Z,21.10
2018-12-13T05:09:38.602Z,26.53
2018-12-13T05:12:07.292Z,28.43
2018-12-13T05:14:36.599Z,26.43
2018-12-13T05:17:05.917Z,27.80
2018-12-13T05:19:44.523Z,26.67
2018-12-13T05:22:12.785Z,30.93
2018-12-13T05:24:41.112Z,27.40
2018-12-13T05:27:09.394Z,31.57
2018-12-13T05:29:38.011Z,29.77
2018-12-13T05:32:06.347Z,34.57
2018-12-13T05:34:44.045Z,33.57
2018-12-13T05:37:12.612Z,33.57
2018-12-13T05:39:44.283Z,36.10
2018-12-13T05:42:12.566Z,32.93
2018-12-13T05:44:40.876Z,38.80
2018-12-13T05:50:08.229Z,35.23
2018-12-13T05:52:36.536Z,40.57
2018-12-13T05:55:05.290Z,39.47
2018-12-13T05:57:33.868Z,39.83
2018-12-13T06:00:02.154Z,38.07
2018-12-13T06:02:31.301Z,37.10
2018-12-13T06:05:00.354Z,38.77
2018-12-13T06:07:28.904Z,38.50
2018-12-13T06:09:57.303Z,37.90
2018-12-13T06:12:25.631Z,41.47
2018-12-13T06:14:53.957Z,40.23
2018-12-13T06:17:22.267Z,37.33
2018-12-13T06:19:50.573Z,39.20
2018-12-13T06:22:20.368Z,39.50
2018-12-13T06:24:48.653Z,41.43
2018-12-13T06:27:16.955Z,37.50
2018-12-13T06:29:48.874Z,36.10
2018-12-13T06:32:16.585Z,41.00
2018-12-13T06:37:19.423Z,38.07
2018-12-13T06:39:47.782Z,37.03
2018-12-13T06:42:17.292Z,38.73
2018-12-13T06:44:45.590Z,37.40
2018-12-13T06:47:13.876Z,37.67
2018-12-13T06:49:42.189Z,35.70
2018-12-13T06:52:15.097Z,34.53
2018-12-13T06:54:53.216Z,36.43
2018-12-13T06:57:21.939Z,35.17
2018-12-13T06:59:50.274Z,34.13
2018-12-13T07:02:19.614Z,36.37
2018-12-13T07:04:48.486Z,36.30
2018-12-13T07:07:16.767Z,36.47
2018-12-13T07:12:26.742Z,33.53
2018-12-13T07:14:55.333Z,35.40
2018-12-13T07:17:23.882Z,35.07
2018-12-13T07:19:53.010Z,34.90
2018-12-13T07:22:21.301Z,35.43
2018-12-13T07:24:49.569Z,33.83
2018-12-13T07:27:19.197Z,31.37
2018-12-13T07:29:47.531Z,34.90
2018-12-13T07:32:15.883Z,31.63
2018-12-13T07:34:44.466Z,31.27
2018-12-13T07:37:16.250Z,31.73
2018-12-13T07:39:47.758Z,31.70
2018-12-13T07:42:16.025Z,32.70
2018-12-13T07:44:44.328Z,33.67
2018-12-13T07:47:13.396Z,28.40
2018-12-13T07:49:41.699Z,29.83
2018-12-13T07:52:10.853Z,30.87
2018-12-13T07:54:39.762Z,30.60
2018-12-13T07:57:08.361Z,30.20
2018-12-13T07:59:37.247Z,25.87
2018-12-13T08:02:06.149Z,31.67
2018-12-13T08:04:34.468Z,26.63
2018-12-13T08:07:02.776Z,30.03
2018-12-13T08:09:31.066Z,28.87
2018-12-13T08:11:59.744Z,27.67
2018-12-13T08:14:28.659Z,25.63
2018-12-13T08:16:56.993Z,28.77
2018-12-13T08:19:25.305Z,27.90
2018-12-13T08:21:54.244Z,27.90
2018-12-13T08:24:23.449Z,27.53
2018-12-13T08:26:51.738Z,28.17
2018-12-13T08:29:20.596Z,28.23
2018-12-13T08:31:50.112Z,25.23
2018-12-13T08:34:18.638Z,26.97
2018-12-13T08:36:46.943Z,27.70
2018-12-13T08:39:15.579Z,26.47
2018-12-13T08:41:44.694Z,26.73
2018-12-13T08:44:13.229Z,25.90
2018-12-13T08:46:42.131Z,25.10
2018-12-13T08:49:10.432Z,27.07
2018-12-13T08:51:39.346Z,24.27
2018-12-13T08:54:07.657Z,23.50
2018-12-13T08:56:36.438Z,26.37
2018-12-13T08:59:05.726Z,24.30
2018-12-13T09:01:34.337Z,25.17
2018-12-13T09:04:02.840Z,23.67
2018-12-13T09:06:31.690Z,26.60
2018-12-13T09:09:00.759Z,24.03
2018-12-13T09:11:29.050Z,23.13
2018-12-13T09:13:57.393Z,20.17
2018-12-13T09:16:31.282Z,20.87
2018-12-13T09:18:56.864Z,26.43
2018-12-13T09:21:25.493Z,23.60
2018-12-13T09:23:53.790Z,20.90
2018-12-13T09:26:22.097Z,23.13
2018-12-13T09:28:50.416Z,25.00
2018-12-13T09:31:18.769Z,23.00
2018-12-13T09:33:47.949Z,24.37
2018-12-13T09:36:16.603Z,19.77
2018-12-13T09:38:44.893Z,22.03
2018-12-13T09:41:13.215Z,17.77
2018-12-13T09:43:41.539Z,23.83
2018-12-13T09:46:10.230Z,22.43
2018-12-13T09:48:39.376Z,23.77
2018-12-13T09:51:07.718Z,20.77
2018-12-13T09:53:36.615Z,19.13
2018-12-13T09:56:05.180Z,21.27
2018-12-13T09:58:43.330Z,22.90
2018-12-13T10:01:12.387Z,18.60
2018-12-13T10:03:41.490Z,23.70
2018-12-13T10:06:10.982Z,21.27
2018-12-13T10:08:39.323Z,20.53
2018-12-13T10:11:07.677Z,21.57
2018-12-13T10:13:36.004Z,22.33
2018-12-13T10:16:08.397Z,23.27
2018-12-13T10:18:37.127Z,21.57
2018-12-13T10:23:39.761Z,19.50
2018-12-13T10:26:08.839Z,22.77
2018-12-13T10:28:37.138Z,20.33
2018-12-13T10:31:06.375Z,21.17
2018-12-13T10:33:35.104Z,20.40
2018-12-13T10:36:04.050Z,19.03
2018-12-13T10:38:32.333Z,19.50
2018-12-13T10:41:00.723Z,16.47
2018-12-13T10:43:29.061Z,19.53
2018-12-13T10:45:57.843Z,20.37
2018-12-13T10:48:26.242Z,17.00
2018-12-13T10:50:54.614Z,17.53
2018-12-13T10:53:23.824Z,19.23
2018-12-13T10:55:52.175Z,20.27
2018-12-13T10:58:20.520Z,16.30
2018-12-13T11:00:54.268Z,19.37
2018-12-13T11:03:28.003Z,17.30
2018-12-13T11:05:56.730Z,17.40
2018-12-13T11:08:25.055Z,14.87
2018-12-13T11:10:53.428Z,16.23
2018-12-13T11:13:21.997Z,16.63
2018-12-13T11:15:50.344Z,17.37
2018-12-13T11:18:18.686Z,21.03
2018-12-13T11:20:47.882Z,13.77
2018-12-13T11:23:16.509Z,19.00
2018-12-13T11:25:44.834Z,16.87
2018-12-13T11:28:24.381Z,18.23
2018-12-13T11:30:53.591Z,16.23
2018-12-13T11:33:22.618Z,16.90
2018-12-13T11:35:50.913Z,15.57
2018-12-13T11:38:19.825Z,14.47
2018-12-13T11:40:49.285Z,17.80
2018-12-13T11:43:17.791Z,15.20
2018-12-13T11:45:46.134Z,16.07
2018-12-13T11:48:14.480Z,17.33
2018-12-13T11:50:42.831Z,15.90
2018-12-13T11:53:11.155Z,15.33
2018-12-13T11:55:40.557Z,16.90
2018-12-13T11:58:16.535Z,17.43
2018-12-13T12:00:44.829Z,16.40
2018-12-13T12:03:13.378Z,16.83
2018-12-13T12:05:42.029Z,16.20
2018-12-13T12:08:10.334Z,17.07
2018-12-13T12:10:38.669Z,16.47
2018-12-13T12:13:07.226Z,17.87
2018-12-13T12:15:35.555Z,17.70
2018-12-13T12:18:04.592Z,18.27
2018-12-13T12:20:32.936Z,18.37
2018-12-13T12:23:02.029Z,18.43
2018-12-13T12:25:30.359Z,20.97
2018-12-13T12:27:58.693Z,22.17
2018-12-13T12:30:27.297Z,19.47
2018-12-13T12:32:55.571Z,21.60
2018-12-13T12:35:24.418Z,22.70
2018-12-13T12:37:53.738Z,19.50
2018-12-13T12:40:22.289Z,19.23
2018-12-13T12:42:50.588Z,19.00
2018-12-13T12:45:19.144Z,22.17
2018-12-13T12:50:21.988Z,18.40
2018-12-13T12:52:50.290Z,21.43
2018-12-13T12:55:20.361Z,20.60
2018-12-13T12:57:49.396Z,18.63
2018-12-13T13:00:17.708Z,19.60
2018-12-13T13:02:47.682Z,18.07
2018-12-13T13:05:17.561Z,19.60
2018-12-13T13:07:45.866Z,17.73
2018-12-13T13:10:14.163Z,17.93
2018-12-13T13:12:43.848Z,17.50
2018-12-13T13:15:12.466Z,17.20
2018-12-13T13:17:40.802Z,18.87
2018-12-13T13:20:09.124Z,17.20
2018-12-13T13:22:37.672Z,15.63
2018-12-13T13:25:06.283Z,17.80
2018-12-13T13:27:34.748Z,16.50
2018-12-13T13:30:03.101Z,16.57
2018-12-13T13:35:05.930Z,19.60
2018-12-13T13:37:34.282Z,18.50
2018-12-13T13:40:03.225Z,20.20
2018-12-13T13:42:31.574Z,16.77
2018-12-13T13:45:02.494Z,19.97
2018-12-13T13:47:30.831Z,19.57
2018-12-13T13:49:59.894Z,18.40
2018-12-13T13:52:28.246Z,17.43
2018-12-13T13:54:57.363Z,20.43
2018-12-13T13:57:25.674Z,20.13
2018-12-13T13:59:54.052Z,22.03
2018-12-13T14:02:22.684Z,18.40
2018-12-13T14:04:51.276Z,16.93
2018-12-13T14:07:19.607Z,19.23
2018-12-13T14:09:48.277Z,17.50
2018-12-13T14:12:16.558Z,19.60
2018-12-13T14:14:44.918Z,16.93
2018-12-13T14:17:13.259Z,17.80
2018-12-13T14:19:41.600Z,16.83
2018-12-13T14:22:11.979Z,17.17
2018-12-13T14:24:40.322Z,15.07
2018-12-13T14:27:09.036Z,17.63
2018-12-13T14:29:37.365Z,16.43
2018-12-13T14:32:06.119Z,17.67
2018-12-13T14:34:44.491Z,15.97
2018-12-13T14:37:13.811Z,14.27
2018-12-13T14:39:44.504Z,17.47
2018-12-13T14:42:12.773Z,15.67
2018-12-13T14:44:41.384Z,14.33
2018-12-13T14:47:09.800Z,14.30
2018-12-13T14:49:38.450Z,14.47
2018-12-13T14:52:07.501Z,15.40
2018-12-13T14:54:36.184Z,14.13
2018-12-13T14:57:04.910Z,13.60
2018-12-13T14:59:47.099Z,14.33
2018-12-13T15:02:14.427Z,15.20
2018-12-13T15:04:46.369Z,12.47
2018-12-13T15:07:14.937Z,14.57
2018-12-13T15:09:44.057Z,13.97
2018-12-13T15:12:12.918Z,12.93
2018-12-13T15:14:41.892Z,11.77
2018-12-13T15:17:10.221Z,11.97
2018-12-13T15:19:38.559Z,12.57
2018-12-13T15:22:07.169Z,12.60
2018-12-13T15:24:35.811Z,11.83
2018-12-13T15:27:04.166Z,11.83
2018-12-13T15:29:32.570Z,11.70
2018-12-13T15:32:01.411Z,10.83
2018-12-13T15:34:30.199Z,10.87
2018-12-13T15:36:59.326Z,11.60
2018-12-13T15:39:28.007Z,11.43
2018-12-13T15:41:56.461Z,10.37
2018-12-13T15:44:25.160Z,10.73
2018-12-13T15:46:55.349Z,12.33
2018-12-13T15:49:24.477Z,10.50
2018-12-13T15:51:52.852Z,11.47
2018-12-13T15:54:21.209Z,11.53
2018-12-13T15:56:49.820Z,10.87
2018-12-13T15:59:18.404Z,9.53
2018-12-13T16:01:50.031Z,10.13
2018-12-13T16:04:19.705Z,9.40
2018-12-13T16:06:48.059Z,8.97
2018-12-13T16:09:25.645Z,10.33
2018-12-13T16:11:54.221Z,9.53
2018-12-13T16:14:22.548Z,8.63
2018-12-13T16:16:51.399Z,9.83
2018-12-13T16:19:19.788Z,9.27
2018-12-13T16:21:49.500Z,10.97
2018-12-13T16:24:18.179Z,9.97
2018-12-13T16:26:47.001Z,9.90
2018-12-13T16:29:15.346Z,9.13
2018-12-13T16:31:44.055Z,10.77
2018-12-13T16:34:12.475Z,8.80
2018-12-13T16:36:41.245Z,8.30
2018-12-13T16:39:09.644Z,9.93
2018-12-13T16:41:42.145Z,10.23
2018-12-13T16:44:10.887Z,10.17
2018-12-13T16:46:40.005Z,9.80
2018-12-13T16:49:09.313Z,10.13
2018-12-13T16:51:37.700Z,10.93
2018-12-13T16:54:06.166Z,9.30
2018-12-13T16:56:34.800Z,9.67
2018-12-13T16:59:03.184Z,8.93
2018-12-13T17:01:32.915Z,10.73
2018-12-13T17:04:04.752Z,10.30
2018-12-13T17:06:33.715Z,10.77
2018-12-13T17:09:02.407Z,9.80
2018-12-13T17:11:30.783Z,11.13
2018-12-13T17:13:59.197Z,10.40
2018-12-13T17:16:37.796Z,10.83
2018-12-13T17:19:06.515Z,9.37
2018-12-13T17:21:36.253Z,9.80
2018-12-13T17:24:04.638Z,9.43
2018-12-13T17:26:33.482Z,9.77
2018-12-13T17:29:02.542Z,9.77
2018-12-13T17:31:30.913Z,10.43
2018-12-13T17:33:59.861Z,10.53
2018-12-13T17:36:29.491Z,9.93
2018-12-13T17:38:58.503Z,10.37
2018-12-13T17:41:28.327Z,12.53
2018-12-13T17:43:56.998Z,11.07
2018-12-13T17:46:25.382Z,10.67
2018-12-13T17:48:53.783Z,10.37
2018-12-13T17:51:23.357Z,9.47
2018-12-13T17:53:58.302Z,10.20
2018-12-13T17:56:27.540Z,9.23
2018-12-13T17:58:55.874Z,11.13
2018-12-13T18:01:25.252Z,11.27
2018-12-13T18:03:53.959Z,10.23
2018-12-13T18:06:22.358Z,11.33
2018-12-13T18:08:50.738Z,9.43
2018-12-13T18:11:20.326Z,9.20
2018-12-13T18:13:49.133Z,9.73
2018-12-13T18:16:18.287Z,9.73
2018-12-13T18:18:46.695Z,11.80
2018-12-13T18:21:15.380Z,9.73
2018-12-13T18:23:44.187Z,9.30
2018-12-13T18:26:12.563Z,9.40
2018-12-13T18:28:40.884Z,9.50
2018-12-13T18:31:10.067Z,9.23
2018-12-13T18:33:38.386Z,9.63
2018-12-13T18:36:07.039Z,10.70
2018-12-13T18:38:35.867Z,8.97
2018-12-13T18:41:05.427Z,9.97
2018-12-13T18:43:33.772Z,9.87
2018-12-13T18:46:02.601Z,10.63
2018-12-13T18:48:31.008Z,10.30
2018-12-13T18:50:59.599Z,9.10
2018-12-13T18:53:28.012Z,10.60
2018-12-13T18:55:56.649Z,10.43
2018-12-13T18:58:25.007Z,10.60
2018-12-13T19:01:03.363Z,11.17
2018-12-13T19:03:31.703Z,10.57
2018-12-13T19:06:00.293Z,11.37
2018-12-13T19:08:34.412Z,11.20
2018-12-13T19:11:03.479Z,12.97
2018-12-13T19:13:32.473Z,10.97
2018-12-13T19:16:11.528Z,12.67
2018-12-13T19:18:39.913Z,11.33
2018-12-13T19:21:08.281Z,12.00
2018-12-13T19:23:37.082Z,13.00
2018-12-13T19:26:06.465Z,19.60
2018-12-13T19:28:34.826Z,13.47
2018-12-13T19:31:04.083Z,11.73
2018-12-13T19:33:33.040Z,12.33
2018-12-13T19:36:01.403Z,12.73
2018-12-13T19:38:30.351Z,11.33
2018-12-13T19:41:08.405Z,12.73
2018-12-13T19:43:37.622Z,13.80
2018-12-13T19:46:07.549Z,13.23
2018-12-13T19:48:36.123Z,12.67
2018-12-13T19:51:06.101Z,13.33
2018-12-13T19:53:35.253Z,13.00
2018-12-13T19:56:04.103Z,13.47
2018-12-13T19:58:32.965Z,15.83
2018-12-13T20:01:01.362Z,14.97
2018-12-13T20:03:30.175Z,14.07
2018-12-13T20:05:58.529Z,12.83
2018-12-13T20:08:27.263Z,15.70
2018-12-13T20:10:56.085Z,13.63
2018-12-13T20:13:24.405Z,14.03
2018-12-13T20:15:52.818Z,15.40
2018-12-13T20:18:21.412Z,14.80
2018-12-13T20:20:50.371Z,13.77
2018-12-13T20:23:19.437Z,13.33
2018-12-13T20:25:47.886Z,12.67
2018-12-13T20:28:16.755Z,13.53
2018-12-13T20:30:45.428Z,14.40
2018-12-13T20:33:14.039Z,12.17
2018-12-13T20:35:42.566Z,14.27
2018-12-13T20:38:11.821Z,13.10
2018-12-13T20:40:40.306Z,12.43
2018-12-13T20:43:09.416Z,12.47
2018-12-13T20:45:39.364Z,13.83
2018-12-13T20:48:07.777Z,14.70
2018-12-13T20:50:36.461Z,11.83
2018-12-13T20:53:04.856Z,12.80
2018-12-13T20:55:33.235Z,13.93
2018-12-13T20:58:01.696Z,14.60
2018-12-13T21:00:30.243Z,12.40
2018-12-13T21:02:59.312Z,13.43
2018-12-13T21:05:27.922Z,13.40
2018-12-13T21:10:34.740Z,11.50
2018-12-13T21:13:03.097Z,12.23
2018-12-13T21:15:31.721Z,13.47
2018-12-13T21:18:00.424Z,13.40
2018-12-13T21:20:28.803Z,12.83
2018-12-13T21:22:57.530Z,13.00
2018-12-13T21:25:26.102Z,12.37
2018-12-13T21:27:59.065Z,13.63
2018-12-13T21:30:27.433Z,13.70
2018-12-13T21:32:56.881Z,12.03
2018-12-13T21:35:25.259Z,12.47
2018-12-13T21:37:53.697Z,13.30
2018-12-13T21:40:25.409Z,13.13
2018-12-13T21:42:54.328Z,13.53
2018-12-13T21:45:22.833Z,13.67
2018-12-13T21:47:51.180Z,13.53
2018-12-13T21:50:20.118Z,15.07
2018-12-13T21:52:51.811Z,14.90
2018-12-13T21:55:20.980Z,13.00
2018-12-13T21:57:49.619Z,15.77
2018-12-13T22:00:21.213Z,15.37
2018-12-13T22:02:50.364Z,14.17
2018-12-13T22:11:05.023Z,15.93
2018-12-13T22:13:34.333Z,14.13
2018-12-13T22:16:03.136Z,16.03
2018-12-13T22:18:32.249Z,15.23
2018-12-13T22:21:01.156Z,15.10
2018-12-13T22:23:33.215Z,15.07
2018-12-13T22:26:01.972Z,16.23
2018-12-13T22:28:30.800Z,15.43
2018-12-13T22:30:59.659Z,17.57
2018-12-13T22:33:29.651Z,15.80
2018-12-13T22:35:58.370Z,15.30
2018-12-13T22:38:26.793Z,17.17
2018-12-13T22:40:55.156Z,17.07
2018-12-13T22:43:23.745Z,16.23
2018-12-13T22:45:52.127Z,16.63
2018-12-13T22:48:20.781Z,15.10
2018-12-13T22:50:49.241Z,16.17
2018-12-13T22:53:17.867Z,15.47
2018-12-13T22:55:46.481Z,17.63
2018-12-13T22:58:26.929Z,15.53
2018-12-13T23:00:55.939Z,15.40
2018-12-13T23:03:24.759Z,16.93
2018-12-13T23:05:53.533Z,16.37
2018-12-13T23:08:22.326Z,14.93
2018-12-13T23:10:54.435Z,15.80
2018-12-13T23:13:22.810Z,17.57
2018-12-13T23:15:53.015Z,17.90
2018-12-13T23:18:22.251Z,16.53
2018-12-13T23:20:53.792Z,17.90
2018-12-13T23:23:22.301Z,17.07
2018-12-13T23:25:50.672Z,17.57
2018-12-13T23:28:19.034Z,17.33
2018-12-13T23:30:47.371Z,17.70
2018-12-13T23:36:08.194Z,18.07
2018-12-13T23:38:36.548Z,18.97
2018-12-13T23:41:05.467Z,16.87
2018-12-13T23:43:33.818Z,19.87
2018-12-13T23:46:02.565Z,17.77
2018-12-13T23:48:30.924Z,18.40
2018-12-13T23:51:00.292Z,18.27
2018-12-13T23:53:28.946Z,17.80
2018-12-13T23:55:57.790Z,18.47
2018-12-13T23:58:26.648Z,19.23
